sensor_id;sensor_type;location;lat;lon;timestamp;pressure;altitude;pressure_sealevel;temperature;humidity
9709;BME280;4893;42.024;23.098;2022-09-03T00:00:38;96686.66;;;19.55;100.00
9709;BME280;4893;42.024;23.098;2022-09-03T00:03:28;96685.69;;;19.61;100.00
9709;BME280;4893;42.024;23.098;2022-09-03T00:08:37;96680.72;;;19.48;100.00
9709;BME280;4893;42.024;23.098;2022-09-03T00:14:11;96681.47;;;19.60;100.00
9709;BME280;4893;42.024;23.098;2022-09-03T00:16:51;96642.16;;;19.42;100.00
9709;BME280;4893;42.024;23.098;2022-09-03T00:19:23;96684.25;;;19.70;100.00
9709;BME280;4893;42.024;23.098;2022-09-03T00:22:02;96664.94;;;19.64;100.00
9709;BME280;4893;42.024;23.098;2022-09-03T00:24:37;96673.44;;;19.66;100.00
9709;BME280;4893;42.024;23.098;2022-09-03T00:27:06;96661.22;;;19.49;100.00
9709;BME280;4893;42.024;23.098;2022-09-03T00:29:38;96656.78;;;19.49;100.00
9709;BME280;4893;42.024;23.098;2022-09-03T00:32:11;96667.66;;;19.53;100.00
9709;BME280;4893;42.024;23.098;2022-09-03T00:34:42;96660.13;;;19.45;100.00
9709;BME280;4893;42.024;23.098;2022-09-03T00:37:10;96656.81;;;19.38;100.00
9709;BME280;4893;42.024;23.098;2022-09-03T00:39:36;96666.75;;;19.19;100.00
9709;BME280;4893;42.024;23.098;2022-09-03T00:53:57;96648.53;;;19.17;100.00
9709;BME280;4893;42.024;23.098;2022-09-03T00:56:52;96641.66;;;19.16;100.00
9709;BME280;4893;42.024;23.098;2022-09-03T01:13:22;96660.47;;;19.08;100.00
9709;BME280;4893;42.024;23.098;2022-09-03T01:15:58;96665.88;;;19.02;100.00
9709;BME280;4893;42.024;23.098;2022-09-03T01:32:58;96692.31;;;18.95;100.00
9709;BME280;4893;42.024;23.098;2022-09-03T01:43:36;96704.34;;;19.03;100.00
9709;BME280;4893;42.024;23.098;2022-09-03T01:46:22;96713.59;;;19.05;100.00
9709;BME280;4893;42.024;23.098;2022-09-03T01:51:30;96721.72;;;19.04;100.00
9709;BME280;4893;42.024;23.098;2022-09-03T02:01:58;96724.81;;;19.12;100.00
9709;BME280;4893;42.024;23.098;2022-09-03T02:04:26;96722.81;;;19.19;100.00
9709;BME280;4893;42.024;23.098;2022-09-03T02:06:55;96725.00;;;19.22;100.00
9709;BME280;4893;42.024;23.098;2022-09-03T02:09:22;96715.28;;;19.11;100.00
9709;BME280;4893;42.024;23.098;2022-09-03T02:11:55;96714.41;;;19.06;100.00
9709;BME280;4893;42.024;23.098;2022-09-03T02:14:24;96711.06;;;19.10;100.00
9709;BME280;4893;42.024;23.098;2022-09-03T02:16:50;96720.41;;;19.18;100.00
9709;BME280;4893;42.024;23.098;2022-09-03T02:19:16;96711.84;;;19.22;100.00
9709;BME280;4893;42.024;23.098;2022-09-03T02:21:49;96715.97;;;19.18;100.00
9709;BME280;4893;42.024;23.098;2022-09-03T02:24:16;96709.22;;;19.22;100.00
9709;BME280;4893;42.024;23.098;2022-09-03T02:26:42;96703.84;;;19.29;100.00
9709;BME280;4893;42.024;23.098;2022-09-03T02:29:07;96701.66;;;19.14;100.00
9709;BME280;4893;42.024;23.098;2022-09-03T02:31:33;96717.31;;;19.21;100.00
9709;BME280;4893;42.024;23.098;2022-09-03T02:33:58;96723.84;;;19.18;100.00
9709;BME280;4893;42.024;23.098;2022-09-03T02:36:27;96725.28;;;19.09;100.00
9709;BME280;4893;42.024;23.098;2022-09-03T02:38:54;96726.84;;;19.10;100.00
9709;BME280;4893;42.024;23.098;2022-09-03T02:41:19;96722.72;;;19.14;100.00
9709;BME280;4893;42.024;23.098;2022-09-03T02:44:00;96715.28;;;19.11;100.00
9709;BME280;4893;42.024;23.098;2022-09-03T02:46:45;96713.94;;;19.09;100.00
9709;BME280;4893;42.024;23.098;2022-09-03T02:49:12;96716.31;;;19.10;100.00
9709;BME280;4893;42.024;23.098;2022-09-03T02:51:39;96725.28;;;19.09;100.00
9709;BME280;4893;42.024;23.098;2022-09-03T02:54:07;96717.38;;;19.09;100.00
9709;BME280;4893;42.024;23.098;2022-09-03T02:56:33;96730.66;;;19.03;100.00
9709;BME280;4893;42.024;23.098;2022-09-03T02:59:05;96736.91;;;19.13;100.00
9709;BME280;4893;42.024;23.098;2022-09-03T03:01:30;96736.25;;;19.06;100.00
9709;BME280;4893;42.024;23.098;2022-09-03T03:03:56;96732.22;;;19.15;100.00
9709;BME280;4893;42.024;23.098;2022-09-03T03:06:22;96725.44;;;19.19;100.00
9709;BME280;4893;42.024;23.098;2022-09-03T03:08:49;96720.66;;;19.16;100.00
9709;BME280;4893;42.024;23.098;2022-09-03T03:11:15;96724.78;;;19.24;100.00
9709;BME280;4893;42.024;23.098;2022-09-03T03:13:43;96711.91;;;18.99;100.00
9709;BME280;4893;42.024;23.098;2022-09-03T03:16:09;96721.25;;;19.07;100.00
9709;BME280;4893;42.024;23.098;2022-09-03T03:18:34;96716.19;;;19.17;100.00
9709;BME280;4893;42.024;23.098;2022-09-03T03:21:08;96714.28;;;19.12;100.00
9709;BME280;4893;42.024;23.098;2022-09-03T03:23:35;96704.22;;;19.09;100.00
9709;BME280;4893;42.024;23.098;2022-09-03T03:26:05;96722.31;;;18.94;100.00
9709;BME280;4893;42.024;23.098;2022-09-03T03:28:31;96710.88;;;18.77;100.00
9709;BME280;4893;42.024;23.098;2022-09-03T03:31:20;96721.41;;;18.89;100.00
9709;BME280;4893;42.024;23.098;2022-09-03T03:33:53;96720.69;;;18.93;100.00
9709;BME280;4893;42.024;23.098;2022-09-03T03:36:19;96715.13;;;18.90;100.00
9709;BME280;4893;42.024;23.098;2022-09-03T03:38:45;96714.31;;;18.89;100.00
9709;BME280;4893;42.024;23.098;2022-09-03T03:41:13;96730.31;;;18.99;100.00
9709;BME280;4893;42.024;23.098;2022-09-03T03:43:40;96727.81;;;19.04;100.00
9709;BME280;4893;42.024;23.098;2022-09-03T03:46:06;96716.78;;;19.07;100.00
9709;BME280;4893;42.024;23.098;2022-09-03T03:48:32;96736.22;;;19.18;100.00
9709;BME280;4893;42.024;23.098;2022-09-03T03:51:02;96727.41;;;19.24;100.00
9709;BME280;4893;42.024;23.098;2022-09-03T03:53:30;96731.66;;;19.13;100.00
9709;BME280;4893;42.024;23.098;2022-09-03T03:55:57;96739.44;;;19.08;100.00
9709;BME280;4893;42.024;23.098;2022-09-03T03:58:23;96739.00;;;19.00;100.00
9709;BME280;4893;42.024;23.098;2022-09-03T04:00:52;96734.19;;;19.08;100.00
9709;BME280;4893;42.024;23.098;2022-09-03T04:03:18;96740.75;;;18.94;100.00
9709;BME280;4893;42.024;23.098;2022-09-03T04:05:54;96745.91;;;18.89;100.00
9709;BME280;4893;42.024;23.098;2022-09-03T04:08:20;96738.13;;;18.71;100.00
9709;BME280;4893;42.024;23.098;2022-09-03T04:10:46;96746.84;;;18.83;100.00
9709;BME280;4893;42.024;23.098;2022-09-03T04:13:11;96749.88;;;18.92;100.00
9709;BME280;4893;42.024;23.098;2022-09-03T04:15:36;96753.31;;;18.92;100.00
9709;BME280;4893;42.024;23.098;2022-09-03T04:18:02;96758.72;;;18.97;100.00
9709;BME280;4893;42.024;23.098;2022-09-03T04:20:27;96747.38;;;18.97;100.00
9709;BME280;4893;42.024;23.098;2022-09-03T04:22:53;96757.22;;;19.01;100.00
9709;BME280;4893;42.024;23.098;2022-09-03T04:25:18;96764.75;;;19.09;100.00
9709;BME280;4893;42.024;23.098;2022-09-03T04:27:44;96760.03;;;19.11;100.00
9709;BME280;4893;42.024;23.098;2022-09-03T04:30:09;96768.06;;;19.16;100.00
9709;BME280;4893;42.024;23.098;2022-09-03T04:32:35;96770.91;;;19.15;100.00
9709;BME280;4893;42.024;23.098;2022-09-03T04:35:22;96772.06;;;19.19;100.00
9709;BME280;4893;42.024;23.098;2022-09-03T04:37:48;96768.53;;;19.13;100.00
9709;BME280;4893;42.024;23.098;2022-09-03T04:40:14;96769.78;;;19.11;100.00
9709;BME280;4893;42.024;23.098;2022-09-03T04:42:39;96782.50;;;19.14;100.00
9709;BME280;4893;42.024;23.098;2022-09-03T04:45:06;96775.19;;;19.04;100.00
9709;BME280;4893;42.024;23.098;2022-09-03T04:47:31;96795.19;;;19.17;100.00
9709;BME280;4893;42.024;23.098;2022-09-03T04:49:57;96796.53;;;19.19;100.00
9709;BME280;4893;42.024;23.098;2022-09-03T04:52:23;96800.22;;;19.18;100.00
9709;BME280;4893;42.024;23.098;2022-09-03T04:54:49;96798.88;;;18.93;100.00
9709;BME280;4893;42.024;23.098;2022-09-03T04:57:14;96802.31;;;18.82;100.00
9709;BME280;4893;42.024;23.098;2022-09-03T04:59:40;96812.50;;;18.78;100.00
9709;BME280;4893;42.024;23.098;2022-09-03T05:02:07;96818.00;;;18.88;100.00
9709;BME280;4893;42.024;23.098;2022-09-03T05:04:34;96811.59;;;18.84;100.00
9709;BME280;4893;42.024;23.098;2022-09-03T05:06:59;96819.34;;;18.79;100.00
9709;BME280;4893;42.024;23.098;2022-09-03T05:09:25;96822.78;;;18.68;100.00
9709;BME280;4893;42.024;23.098;2022-09-03T05:11:50;96827.94;;;18.86;100.00
9709;BME280;4893;42.024;23.098;2022-09-03T05:14:16;96827.38;;;18.84;100.00
9709;BME280;4893;42.024;23.098;2022-09-03T05:16:41;96825.44;;;18.91;100.00
9709;BME280;4893;42.024;23.098;2022-09-03T05:19:06;96825.44;;;18.91;100.00
9709;BME280;4893;42.024;23.098;2022-09-03T05:21:34;96830.13;;;18.89;100.00
9709;BME280;4893;42.024;23.098;2022-09-03T05:24:01;96814.56;;;18.99;100.00
9709;BME280;4893;42.024;23.098;2022-09-03T05:26:29;96831.38;;;18.98;100.00
9709;BME280;4893;42.024;23.098;2022-09-03T05:28:59;96827.38;;;19.07;100.00
9709;BME280;4893;42.024;23.098;2022-09-03T05:31:27;96827.72;;;19.11;100.00
9709;BME280;4893;42.024;23.098;2022-09-03T05:33:59;96836.63;;;19.21;100.00
9709;BME280;4893;42.024;23.098;2022-09-03T05:36:34;96837.78;;;19.25;100.00
9709;BME280;4893;42.024;23.098;2022-09-03T05:38:59;96837.91;;;19.31;100.00
9709;BME280;4893;42.024;23.098;2022-09-03T05:41:26;96834.47;;;19.18;100.00
9709;BME280;4893;42.024;23.098;2022-09-03T05:43:53;96829.31;;;19.23;100.00
9709;BME280;4893;42.024;23.098;2022-09-03T05:46:25;96823.00;;;19.24;100.00
9709;BME280;4893;42.024;23.098;2022-09-03T05:48:57;96842.13;;;19.20;100.00
9709;BME280;4893;42.024;23.098;2022-09-03T05:51:25;96841.56;;;19.29;100.00
9709;BME280;4893;42.024;23.098;2022-09-03T05:53:51;96851.53;;;19.16;100.00
9709;BME280;4893;42.024;23.098;2022-09-03T05:56:22;96847.84;;;18.94;100.00
9709;BME280;4893;42.024;23.098;2022-09-03T05:58:49;96848.78;;;19.11;100.00
9709;BME280;4893;42.024;23.098;2022-09-03T06:01:20;96843.72;;;19.21;100.00
9709;BME280;4893;42.024;23.098;2022-09-03T06:03:55;96850.13;;;19.25;100.00
9709;BME280;4893;42.024;23.098;2022-09-03T06:06:21;96840.97;;;19.27;100.00
9709;BME280;4893;42.024;23.098;2022-09-03T06:08:58;96854.97;;;19.40;100.00
9709;BME280;4893;42.024;23.098;2022-09-03T06:11:25;96848.53;;;19.47;100.00
9709;BME280;4893;42.024;23.098;2022-09-03T06:13:53;96841.69;;;19.35;100.00
9709;BME280;4893;42.024;23.098;2022-09-03T06:16:19;96854.13;;;19.51;100.00
9709;BME280;4893;42.024;23.098;2022-09-03T06:18:45;96852.88;;;19.53;100.00
9709;BME280;4893;42.024;23.098;2022-09-03T06:21:11;96847.72;;;19.58;100.00
9709;BME280;4893;42.024;23.098;2022-09-03T06:23:36;96855.25;;;19.66;100.00
9709;BME280;4893;42.024;23.098;2022-09-03T06:26:12;96855.63;;;19.86;100.00
9709;BME280;4893;42.024;23.098;2022-09-03T06:28:40;96851.91;;;19.99;100.00
9709;BME280;4893;42.024;23.098;2022-09-03T06:31:10;96867.78;;;20.27;100.00
9709;BME280;4893;42.024;23.098;2022-09-03T06:33:37;96868.81;;;20.26;100.00
9709;BME280;4893;42.024;23.098;2022-09-03T06:36:04;96860.84;;;20.54;100.00
9709;BME280;4893;42.024;23.098;2022-09-03T06:38:32;96854.47;;;21.16;100.00
9709;BME280;4893;42.024;23.098;2022-09-03T06:41:05;96835.34;;;21.47;100.00
9709;BME280;4893;42.024;23.098;2022-09-03T06:43:34;96871.06;;;22.15;100.00
9709;BME280;4893;42.024;23.098;2022-09-03T06:46:03;96862.13;;;22.74;100.00
9709;BME280;4893;42.024;23.098;2022-09-03T06:48:32;96874.19;;;23.28;100.00
9709;BME280;4893;42.024;23.098;2022-09-03T06:51:02;96879.13;;;23.56;100.00
9709;BME280;4893;42.024;23.098;2022-09-03T06:53:34;96883.53;;;23.36;100.00
9709;BME280;4893;42.024;23.098;2022-09-03T06:56:02;96862.97;;;23.58;100.00
9709;BME280;4893;42.024;23.098;2022-09-03T06:58:30;96878.13;;;23.67;100.00
9709;BME280;4893;42.024;23.098;2022-09-03T07:01:15;96886.75;;;23.38;100.00
9709;BME280;4893;42.024;23.098;2022-09-03T07:03:42;96891.50;;;23.36;100.00
9709;BME280;4893;42.024;23.098;2022-09-03T07:06:16;96885.44;;;23.45;100.00
9709;BME280;4893;42.024;23.098;2022-09-03T07:08:43;96897.38;;;22.79;100.00
9709;BME280;4893;42.024;23.098;2022-09-03T07:11:12;96893.34;;;22.45;100.00
9709;BME280;4893;42.024;23.098;2022-09-03T07:13:42;96887.00;;;22.46;100.00
9709;BME280;4893;42.024;23.098;2022-09-03T07:16:33;96893.31;;;22.40;100.00
9709;BME280;4893;42.024;23.098;2022-09-03T07:18:59;96896.34;;;22.27;100.00
9709;BME280;4893;42.024;23.098;2022-09-03T07:21:27;96900.53;;;22.02;100.00
9709;BME280;4893;42.024;23.098;2022-09-03T07:23:54;96905.44;;;22.36;100.00
9709;BME280;4893;42.024;23.098;2022-09-03T07:28:47;96907.00;;;22.59;100.00
9709;BME280;4893;42.024;23.098;2022-09-03T07:31:29;96914.31;;;22.52;100.00
9709;BME280;4893;42.024;23.098;2022-09-03T07:34:01;96884.94;;;22.27;100.00
9709;BME280;4893;42.024;23.098;2022-09-03T07:36:33;96909.97;;;22.41;100.00
9709;BME280;4893;42.024;23.098;2022-09-03T07:38:59;96913.41;;;22.63;100.00
9709;BME280;4893;42.024;23.098;2022-09-03T07:41:26;96917.19;;;22.72;100.00
9709;BME280;4893;42.024;23.098;2022-09-03T07:44:02;96904.00;;;22.77;100.00
9709;BME280;4893;42.024;23.098;2022-09-03T07:46:34;96922.28;;;22.78;100.00
9709;BME280;4893;42.024;23.098;2022-09-03T07:49:00;96930.50;;;22.77;100.00
9709;BME280;4893;42.024;23.098;2022-09-03T07:51:31;96932.53;;;22.70;100.00
9709;BME280;4893;42.024;23.098;2022-09-03T07:53:59;96927.22;;;22.96;100.00
9709;BME280;4893;42.024;23.098;2022-09-03T07:56:26;96938.50;;;23.18;100.00
9709;BME280;4893;42.024;23.098;2022-09-03T07:58:55;96940.28;;;23.08;100.00
9709;BME280;4893;42.024;23.098;2022-09-03T08:01:24;96937.28;;;23.26;100.00
9709;BME280;4893;42.024;23.098;2022-09-03T08:04:10;96937.31;;;23.31;100.00
9709;BME280;4893;42.024;23.098;2022-09-03T08:06:36;96908.19;;;23.36;100.00
9709;BME280;4893;42.024;23.098;2022-09-03T08:09:04;96932.63;;;23.43;100.00
9709;BME280;4893;42.024;23.098;2022-09-03T08:11:30;96930.78;;;23.90;100.00
9709;BME280;4893;42.024;23.098;2022-09-03T08:14:07;96932.97;;;23.98;100.00
9709;BME280;4893;42.024;23.098;2022-09-03T08:16:45;96929.25;;;24.04;100.00
9709;BME280;4893;42.024;23.098;2022-09-03T08:19:12;96928.78;;;24.22;100.00
9709;BME280;4893;42.024;23.098;2022-09-03T08:21:39;96931.19;;;24.24;100.00
9709;BME280;4893;42.024;23.098;2022-09-03T08:24:07;96922.91;;;24.05;100.00
9709;BME280;4893;42.024;23.098;2022-09-03T08:26:34;96934.63;;;24.19;100.00
9709;BME280;4893;42.024;23.098;2022-09-03T08:29:01;96933.09;;;24.43;100.00
9709;BME280;4893;42.024;23.098;2022-09-03T08:31:28;96937.72;;;24.73;100.00
9709;BME280;4893;42.024;23.098;2022-09-03T08:33:55;96929.75;;;25.03;100.00
9709;BME280;4893;42.024;23.098;2022-09-03T08:36:29;96927.91;;;25.29;100.00
9709;BME280;4893;42.024;23.098;2022-09-03T08:38:56;96927.91;;;25.29;100.00
9709;BME280;4893;42.024;23.098;2022-09-03T08:47:19;96898.41;;;25.15;100.00
9709;BME280;4893;42.024;23.098;2022-09-03T08:55:27;96913.47;;;25.80;100.00
9709;BME280;4893;42.024;23.098;2022-09-03T08:58:25;96910.81;;;25.65;100.00
9709;BME280;4893;42.024;23.098;2022-09-03T09:07:12;96892.91;;;26.01;100.00
9709;BME280;4893;42.024;23.098;2022-09-03T09:09:56;96905.97;;;25.92;100.00
9709;BME280;4893;42.024;23.098;2022-09-03T09:15:10;96904.28;;;26.16;100.00
9709;BME280;4893;42.024;23.098;2022-09-03T09:20:29;96900.69;;;25.82;100.00
9709;BME280;4893;42.024;23.098;2022-09-03T09:23:07;96905.31;;;26.20;100.00
9709;BME280;4893;42.024;23.098;2022-09-03T09:25:33;96908.63;;;25.92;100.00
9709;BME280;4893;42.024;23.098;2022-09-03T09:28:16;96900.09;;;25.95;100.00
9709;BME280;4893;42.024;23.098;2022-09-03T09:30:44;96906.28;;;25.75;100.00
9709;BME280;4893;42.024;23.098;2022-09-03T09:33:12;96897.03;;;25.63;100.00
9709;BME280;4893;42.024;23.098;2022-09-03T09:35:37;96894.31;;;25.68;100.00
9709;BME280;4893;42.024;23.098;2022-09-03T09:38:06;96903.88;;;25.84;100.00
9709;BME280;4893;42.024;23.098;2022-09-03T09:40:35;96919.88;;;25.74;100.00
9709;BME280;4893;42.024;23.098;2022-09-03T09:43:09;96919.13;;;25.23;100.00
9709;BME280;4893;42.024;23.098;2022-09-03T09:45:37;96922.31;;;25.15;100.00
9709;BME280;4893;42.024;23.098;2022-09-03T09:48:09;96919.41;;;25.42;100.00
9709;BME280;4893;42.024;23.098;2022-09-03T09:50:37;96925.13;;;25.89;100.00
9709;BME280;4893;42.024;23.098;2022-09-03T09:53:06;96920.56;;;26.10;100.00
9709;BME280;4893;42.024;23.098;2022-09-03T09:55:55;96921.31;;;26.20;100.00
9709;BME280;4893;42.024;23.098;2022-09-03T09:58:24;96922.22;;;26.49;100.00
9709;BME280;4893;42.024;23.098;2022-09-03T10:03:21;96897.06;;;26.70;100.00
9709;BME280;4893;42.024;23.098;2022-09-03T10:06:00;96881.72;;;26.91;100.00
9709;BME280;4893;42.024;23.098;2022-09-03T10:08:45;96910.59;;;27.12;98.28
9709;BME280;4893;42.024;23.098;2022-09-03T10:11:11;96917.19;;;27.25;97.66
9709;BME280;4893;42.024;23.098;2022-09-03T10:13:44;96907.06;;;27.17;94.45
9709;BME280;4893;42.024;23.098;2022-09-03T10:16:22;96909.91;;;27.02;98.52
9709;BME280;4893;42.024;23.098;2022-09-03T10:19:10;96914.34;;;26.78;96.11
9709;BME280;4893;42.024;23.098;2022-09-03T10:26:43;96894.78;;;26.92;100.00
9709;BME280;4893;42.024;23.098;2022-09-03T10:29:16;96905.59;;;27.40;96.62
9709;BME280;4893;42.024;23.098;2022-09-03T10:39:55;96907.28;;;27.25;93.19
9709;BME280;4893;42.024;23.098;2022-09-03T10:42:39;96903.03;;;27.53;88.82
9709;BME280;4893;42.024;23.098;2022-09-03T10:45:41;96903.56;;;27.79;98.10
9709;BME280;4893;42.024;23.098;2022-09-03T10:56:41;96899.50;;;30.57;81.09
9709;BME280;4893;42.024;23.098;2022-09-03T11:07:27;96890.91;;;29.51;77.38
9709;BME280;4893;42.024;23.098;2022-09-03T11:10:04;96905.13;;;29.65;93.38
9709;BME280;4893;42.024;23.098;2022-09-03T11:12:37;96899.81;;;29.33;73.92
9709;BME280;4893;42.024;23.098;2022-09-03T11:15:25;96897.09;;;28.69;82.53
9709;BME280;4893;42.024;23.098;2022-09-03T11:18:02;96901.00;;;29.27;83.93
9709;BME280;4893;42.024;23.098;2022-09-03T11:20:29;96897.69;;;29.17;79.02
9709;BME280;4893;42.024;23.098;2022-09-03T11:22:59;96907.72;;;29.70;98.32
9709;BME280;4893;42.024;23.098;2022-09-03T11:25:32;96899.91;;;29.42;76.60
9709;BME280;4893;42.024;23.098;2022-09-03T11:33:22;96895.50;;;27.84;88.18
9709;BME280;4893;42.024;23.098;2022-09-03T11:35:59;96902.22;;;27.29;98.77
9709;BME280;4893;42.024;23.098;2022-09-03T11:38:27;96895.13;;;27.14;100.00
9709;BME280;4893;42.024;23.098;2022-09-03T11:41:21;96900.66;;;26.89;93.85
9709;BME280;4893;42.024;23.098;2022-09-03T11:43:50;96896.81;;;26.67;94.18
9709;BME280;4893;42.024;23.098;2022-09-03T11:49:07;96893.84;;;26.73;98.11
9709;BME280;4893;42.024;23.098;2022-09-03T11:51:37;96886.19;;;27.00;100.00
9709;BME280;4893;42.024;23.098;2022-09-03T11:54:24;96886.66;;;27.02;100.00
9709;BME280;4893;42.024;23.098;2022-09-03T11:57:02;96884.19;;;27.11;98.83
9709;BME280;4893;42.024;23.098;2022-09-03T11:59:28;96881.00;;;27.09;99.30
9709;BME280;4893;42.024;23.098;2022-09-03T12:02:19;96879.50;;;26.69;93.28
9709;BME280;4893;42.024;23.098;2022-09-03T12:10:48;96872.69;;;27.15;90.46
9709;BME280;4893;42.024;23.098;2022-09-03T12:13:32;96866.09;;;27.08;91.55
9709;BME280;4893;42.024;23.098;2022-09-03T12:16:38;96863.28;;;27.23;92.54
9709;BME280;4893;42.024;23.098;2022-09-03T12:19:13;96852.75;;;27.37;91.99
9709;BME280;4893;42.024;23.098;2022-09-03T12:21:47;96851.66;;;27.43;86.22
9709;BME280;4893;42.024;23.098;2022-09-03T12:24:13;96841.09;;;27.33;88.47
9709;BME280;4893;42.024;23.098;2022-09-03T12:26:41;96843.81;;;27.28;83.58
9709;BME280;4893;42.024;23.098;2022-09-03T12:29:23;96838.78;;;27.21;89.78
9709;BME280;4893;42.024;23.098;2022-09-03T12:31:48;96843.75;;;27.33;94.62
9709;BME280;4893;42.024;23.098;2022-09-03T12:34:20;96841.81;;;27.38;89.28
9709;BME280;4893;42.024;23.098;2022-09-03T12:36:52;96841.38;;;27.26;86.10
9709;BME280;4893;42.024;23.098;2022-09-03T12:39:49;96837.66;;;27.27;86.19
9709;BME280;4893;42.024;23.098;2022-09-03T12:42:26;96829.53;;;27.13;87.90
9709;BME280;4893;42.024;23.098;2022-09-03T12:44:52;96819.91;;;27.12;90.24
9709;BME280;4893;42.024;23.098;2022-09-03T12:47:20;96837.78;;;27.41;93.55
9709;BME280;4893;42.024;23.098;2022-09-03T12:49:48;96833.25;;;27.41;92.90
9709;BME280;4893;42.024;23.098;2022-09-03T12:52:20;96837.69;;;27.51;90.68
9709;BME280;4893;42.024;23.098;2022-09-03T12:57:27;96809.97;;;27.47;94.46
9709;BME280;4893;42.024;23.098;2022-09-03T12:59:57;96813.78;;;27.41;91.06
9709;BME280;4893;42.024;23.098;2022-09-03T13:02:46;96825.06;;;27.56;86.21
9709;BME280;4893;42.024;23.098;2022-09-03T13:05:21;96808.38;;;27.46;84.32
9709;BME280;4893;42.024;23.098;2022-09-03T13:07:55;96792.94;;;27.43;88.19
9709;BME280;4893;42.024;23.098;2022-09-03T13:10:28;96819.97;;;27.60;85.50
9709;BME280;4893;42.024;23.098;2022-09-03T13:12:59;96807.69;;;27.59;91.11
9709;BME280;4893;42.024;23.098;2022-09-03T13:15:25;96815.19;;;27.57;83.61
9709;BME280;4893;42.024;23.098;2022-09-03T13:23:07;96806.53;;;27.46;90.44
9709;BME280;4893;42.024;23.098;2022-09-03T13:31:21;96806.88;;;27.40;87.37
9709;BME280;4893;42.024;23.098;2022-09-03T13:37:08;96797.59;;;27.32;87.23
9709;BME280;4893;42.024;23.098;2022-09-03T13:39:45;96787.97;;;27.36;86.86
9709;BME280;4893;42.024;23.098;2022-09-03T13:42:37;96786.88;;;27.37;79.60
9709;BME280;4893;42.024;23.098;2022-09-03T13:45:20;96776.13;;;27.18;86.55
9709;BME280;4893;42.024;23.098;2022-09-03T13:48:12;96790.09;;;27.34;88.81
9709;BME280;4893;42.024;23.098;2022-09-03T13:51:51;96785.03;;;27.56;83.25
9709;BME280;4893;42.024;23.098;2022-09-03T13:54:30;96789.38;;;28.13;83.41
9709;BME280;4893;42.024;23.098;2022-09-03T13:57:18;96798.63;;;28.20;82.82
9709;BME280;4893;42.024;23.098;2022-09-03T14:02:31;96800.06;;;28.50;74.42
9709;BME280;4893;42.024;23.098;2022-09-03T14:13:52;96795.66;;;28.22;74.16
9709;BME280;4893;42.024;23.098;2022-09-03T14:19:20;96789.25;;;27.81;81.74
9709;BME280;4893;42.024;23.098;2022-09-03T14:21:50;96799.50;;;27.74;80.95
9709;BME280;4893;42.024;23.098;2022-09-03T14:24:44;96794.97;;;27.27;80.71
9709;BME280;4893;42.024;23.098;2022-09-03T14:27:11;96793.63;;;27.01;79.72
9709;BME280;4893;42.024;23.098;2022-09-03T14:29:37;96765.75;;;26.88;81.40
9709;BME280;4893;42.024;23.098;2022-09-03T14:37:49;96787.63;;;27.61;78.64
9709;BME280;4893;42.024;23.098;2022-09-03T14:49:16;96786.22;;;27.21;81.70
9709;BME280;4893;42.024;23.098;2022-09-03T14:52:19;96791.19;;;27.04;90.60
9709;BME280;4893;42.024;23.098;2022-09-03T15:00:16;96786.16;;;26.74;86.68
9709;BME280;4893;42.024;23.098;2022-09-03T15:05:40;96799.56;;;26.59;89.08
9709;BME280;4893;42.024;23.098;2022-09-03T15:10:53;96794.28;;;26.54;87.68
9709;BME280;4893;42.024;23.098;2022-09-03T15:13:23;96794.53;;;26.58;90.20
9709;BME280;4893;42.024;23.098;2022-09-03T15:24:55;96799.22;;;26.37;93.40
9709;BME280;4893;42.024;23.098;2022-09-03T15:32:55;96795.19;;;26.40;93.37
9709;BME280;4893;42.024;23.098;2022-09-03T15:40:59;96816.13;;;26.23;100.00
9709;BME280;4893;42.024;23.098;2022-09-03T15:43:30;96815.09;;;26.14;100.00
9709;BME280;4893;42.024;23.098;2022-09-03T15:45:59;96814.91;;;25.95;99.90
9709;BME280;4893;42.024;23.098;2022-09-03T15:48:36;96830.09;;;25.89;96.93
9709;BME280;4893;42.024;23.098;2022-09-03T15:56:40;96804.94;;;25.62;96.72
9709;BME280;4893;42.024;23.098;2022-09-03T15:59:20;96819.28;;;25.71;100.00
9709;BME280;4893;42.024;23.098;2022-09-03T16:08:03;96824.38;;;25.57;100.00
9709;BME280;4893;42.024;23.098;2022-09-03T16:10:41;96808.72;;;25.46;100.00
9709;BME280;4893;42.024;23.098;2022-09-03T16:16:25;96825.78;;;25.20;100.00
9709;BME280;4893;42.024;23.098;2022-09-03T16:22:12;96826.63;;;24.95;100.00
9709;BME280;4893;42.024;23.098;2022-09-03T16:25:00;96827.19;;;24.82;100.00
9709;BME280;4893;42.024;23.098;2022-09-03T16:27:36;96828.50;;;24.80;100.00
9709;BME280;4893;42.024;23.098;2022-09-03T16:32:57;96835.16;;;24.67;100.00
9709;BME280;4893;42.024;23.098;2022-09-03T16:43:26;96842.84;;;24.58;100.00
9709;BME280;4893;42.024;23.098;2022-09-03T16:51:19;96849.16;;;24.27;100.00
9709;BME280;4893;42.024;23.098;2022-09-03T17:05:23;96861.72;;;23.80;100.00
9709;BME280;4893;42.024;23.098;2022-09-03T17:11:00;96873.06;;;23.66;100.00
9709;BME280;4893;42.024;23.098;2022-09-03T17:19:13;96885.91;;;23.32;100.00
9709;BME280;4893;42.024;23.098;2022-09-03T17:24:52;96895.06;;;23.19;100.00
9709;BME280;4893;42.024;23.098;2022-09-03T17:30:10;96908.97;;;23.00;100.00
9709;BME280;4893;42.024;23.098;2022-09-03T17:49:44;96944.38;;;22.89;100.00
9709;BME280;4893;42.024;23.098;2022-09-03T17:52:46;96957.44;;;22.69;100.00
9709;BME280;4893;42.024;23.098;2022-09-03T17:55:35;96959.41;;;22.57;100.00
9709;BME280;4893;42.024;23.098;2022-09-03T17:58:23;96967.91;;;22.37;100.00
9709;BME280;4893;42.024;23.098;2022-09-03T18:01:16;96975.25;;;22.30;100.00
9709;BME280;4893;42.024;23.098;2022-09-03T18:06:31;96982.88;;;22.27;100.00
9709;BME280;4893;42.024;23.098;2022-09-03T18:09:25;96991.19;;;22.14;100.00
9709;BME280;4893;42.024;23.098;2022-09-03T18:17:40;97011.53;;;21.91;100.00
9709;BME280;4893;42.024;23.098;2022-09-03T18:20:10;97024.28;;;21.94;100.00
9709;BME280;4893;42.024;23.098;2022-09-03T18:23:00;97033.94;;;21.72;100.00
9709;BME280;4893;42.024;23.098;2022-09-03T18:25:49;97027.88;;;21.72;100.00
9709;BME280;4893;42.024;23.098;2022-09-03T18:29:19;97038.94;;;21.69;100.00